createdAt,value
2022-09-02T00:02:44.524Z,2.30
2022-09-02T00:05:52.911Z,2.83
2022-09-02T00:09:04.937Z,3.10
2022-09-02T00:12:13.138Z,2.47
2022-09-02T00:15:21.332Z,2.03
2022-09-02T00:18:30.605Z,2.27
2022-09-02T00:21:38.838Z,2.37
2022-09-02T00:24:48.356Z,2.67
2022-09-02T00:27:56.656Z,2.63
2022-09-02T00:31:04.980Z,2.53
2022-09-02T00:34:14.097Z,2.77
2022-09-02T00:37:22.999Z,2.70
2022-09-02T00:40:34.434Z,3.13
2022-09-02T00:43:49.303Z,3.10
2022-09-02T00:46:57.480Z,3.10
2022-09-02T00:50:11.217Z,2.90
2022-09-02T00:53:20.918Z,3.23
2022-09-02T00:56:33.323Z,3.30
2022-09-02T00:59:58.098Z,3.10
2022-09-02T01:03:11.902Z,2.67
2022-09-02T01:06:27.192Z,2.83
2022-09-02T01:09:36.219Z,2.70
2022-09-02T01:12:47.426Z,3.07
2022-09-02T01:16:05.470Z,2.30
2022-09-02T01:19:23.904Z,2.33
2022-09-02T01:22:36.502Z,3.50
2022-09-02T01:25:46.435Z,3.47
2022-09-02T01:28:54.639Z,3.63
2022-09-02T01:32:03.257Z,3.17
2022-09-02T01:35:12.585Z,3.17
2022-09-02T01:38:24.373Z,3.30
2022-09-02T01:41:32.941Z,3.20
2022-09-02T01:44:44.172Z,3.50
2022-09-02T01:47:53.968Z,3.43
2022-09-02T01:51:05.447Z,3.90
2022-09-02T01:54:15.109Z,4.17
2022-09-02T01:57:24.742Z,4.63
2022-09-02T02:00:33.549Z,3.73
2022-09-02T02:03:43.292Z,3.97
2022-09-02T02:06:53.353Z,3.63
2022-09-02T02:10:04.974Z,4.13
2022-09-02T02:13:13.888Z,4.20
2022-09-02T02:16:24.309Z,10.63
2022-09-02T02:19:33.050Z,11.10
2022-09-02T02:22:41.853Z,8.07
2022-09-02T02:25:51.422Z,6.37
2022-09-02T02:28:59.818Z,5.40
2022-09-02T02:32:09.086Z,4.67
2022-09-02T02:35:20.082Z,4.60
2022-09-02T02:38:29.596Z,3.90
2022-09-02T02:41:45.019Z,3.77
2022-09-02T02:44:54.965Z,3.93
2022-09-02T02:48:04.591Z,3.43
2022-09-02T02:51:14.809Z,3.57
2022-09-02T02:54:23.846Z,3.83
2022-09-02T03:02:34.194Z,2.93
2022-09-02T03:05:42.910Z,2.80
2022-09-02T03:08:53.194Z,2.50
2022-09-02T03:12:01.731Z,2.40
2022-09-02T03:15:12.344Z,2.50
2022-09-02T03:18:23.402Z,2.60
2022-09-02T03:21:38.894Z,3.20
2022-09-02T03:24:48.603Z,3.33
2022-09-02T03:27:57.850Z,2.93
2022-09-02T03:31:07.423Z,2.97
2022-09-02T03:34:17.128Z,3.30
2022-09-02T03:37:26.328Z,3.63
2022-09-02T03:40:35.258Z,3.40
2022-09-02T03:43:44.167Z,3.57
2022-09-02T03:46:52.548Z,3.67
2022-09-02T03:50:03.655Z,3.37
2022-09-02T03:53:18.372Z,3.13
2022-09-02T03:56:30.445Z,3.30
2022-09-02T03:59:39.135Z,2.90
2022-09-02T04:02:50.027Z,4.10
2022-09-02T04:06:01.783Z,4.30
2022-09-02T04:09:10.375Z,4.90
2022-09-02T04:12:21.037Z,4.70
2022-09-02T04:15:31.898Z,4.00
2022-09-02T04:18:40.616Z,4.17
2022-09-02T04:21:51.089Z,4.27
2022-09-02T04:25:00.001Z,4.67
2022-09-02T04:28:09.587Z,4.17
2022-09-02T04:31:22.027Z,4.60
2022-09-02T04:34:32.528Z,4.40
2022-09-02T04:37:42.901Z,3.50
2022-09-02T04:40:52.126Z,3.30
2022-09-02T04:44:01.789Z,3.87
2022-09-02T04:47:14.291Z,3.90
2022-09-02T04:50:25.488Z,4.20
2022-09-02T04:53:44.072Z,3.37
2022-09-02T04:56:54.443Z,3.20
2022-09-02T05:00:06.738Z,2.70
2022-09-02T05:03:15.792Z,2.67
2022-09-02T05:06:29.343Z,3.00
2022-09-02T05:09:41.542Z,4.00
2022-09-02T05:12:49.790Z,4.30
2022-09-02T05:15:58.123Z,3.77
2022-09-02T05:19:09.715Z,3.97
2022-09-02T05:22:22.224Z,3.87
2022-09-02T05:25:31.973Z,3.10
2022-09-02T05:28:43.416Z,3.47
2022-09-02T05:31:52.872Z,3.07
2022-09-02T05:35:03.833Z,3.53
2022-09-02T05:38:15.041Z,3.40
2022-09-02T05:41:26.184Z,3.70
2022-09-02T05:44:39.186Z,3.80
2022-09-02T05:47:50.339Z,4.20
2022-09-02T05:50:59.331Z,4.23
2022-09-02T05:54:11.835Z,4.20
2022-09-02T05:57:24.761Z,4.63
2022-09-02T06:00:40.233Z,5.07
2022-09-02T06:03:50.478Z,5.40
2022-09-02T06:06:59.298Z,7.57
2022-09-02T06:10:08.612Z,7.50
2022-09-02T06:13:22.732Z,8.07
2022-09-02T06:16:33.792Z,7.73
2022-09-02T06:19:43.077Z,8.97
2022-09-02T06:22:52.345Z,11.30
2022-09-02T06:26:02.634Z,10.70
2022-09-02T06:29:13.206Z,4.83
2022-09-02T06:32:21.915Z,3.23
2022-09-02T06:35:37.799Z,3.50
2022-09-02T06:38:51.289Z,2.60
2022-09-02T06:41:59.749Z,2.60
2022-09-02T06:45:12.620Z,1.87
2022-09-02T06:48:22.003Z,2.13
2022-09-02T06:51:35.603Z,2.50
2022-09-02T06:54:45.222Z,2.20
2022-09-02T06:57:56.887Z,1.80
2022-09-02T07:01:08.005Z,1.90
2022-09-02T07:04:36.009Z,1.80
2022-09-02T07:07:48.107Z,1.97
2022-09-02T07:10:57.153Z,1.70
2022-09-02T07:14:06.177Z,1.90
2022-09-02T07:17:17.923Z,1.60
2022-09-02T07:20:30.058Z,1.37
2022-09-02T07:23:42.273Z,1.40
2022-09-02T07:26:55.478Z,1.37
2022-09-02T07:30:07.499Z,1.57
2022-09-02T07:33:21.143Z,1.40
2022-09-02T07:36:29.892Z,1.60
2022-09-02T07:39:39.169Z,1.63
2022-09-02T07:42:47.628Z,1.67
2022-09-02T07:46:00.895Z,1.50
2022-09-02T07:49:13.935Z,1.33
2022-09-02T07:52:23.186Z,1.90
2022-09-02T07:55:32.418Z,1.70
2022-09-02T07:58:49.298Z,2.33
2022-09-02T08:01:59.843Z,2.20
2022-09-02T08:05:10.739Z,1.90
2022-09-02T08:08:21.216Z,1.87
2022-09-02T08:11:29.442Z,1.90
2022-09-02T08:14:37.740Z,2.00
2022-09-02T08:17:45.948Z,1.93
2022-09-02T08:20:56.937Z,2.17
2022-09-02T08:24:06.082Z,1.50
2022-09-02T08:27:17.061Z,1.50
2022-09-02T08:31:11.621Z,1.97
2022-09-02T08:35:25.739Z,1.67
2022-09-02T08:38:58.061Z,1.70
2022-09-02T08:43:08.128Z,1.33
2022-09-02T08:46:49.464Z,1.47
2022-09-02T08:50:39.756Z,1.40
2022-09-02T08:53:58.967Z,1.40
2022-09-02T08:57:07.833Z,1.40
2022-09-02T09:00:44.207Z,1.30
2022-09-02T09:10:09.217Z,1.00
2022-09-02T09:14:32.924Z,1.10
2022-09-02T09:21:40.755Z,1.30
2022-09-02T09:24:52.167Z,1.40
2022-09-02T09:33:02.446Z,1.20
2022-09-02T09:37:04.530Z,1.20
2022-09-02T09:40:33.728Z,1.00
2022-09-02T09:44:33.823Z,1.00
2022-09-02T09:52:39.417Z,0.90
2022-09-02T09:55:58.280Z,0.80
2022-09-02T10:00:40.529Z,0.70
2022-09-02T10:04:59.430Z,0.80
2022-09-02T10:09:30.446Z,1.00
2022-09-02T10:17:30.086Z,0.77
2022-09-02T10:21:45.023Z,0.70
2022-09-02T10:34:35.015Z,0.60
2022-09-02T10:38:01.989Z,1.10
2022-09-02T10:41:34.286Z,0.80
2022-09-02T10:45:01.844Z,0.93
2022-09-02T10:49:47.961Z,0.70
2022-09-02T10:53:39.692Z,0.63
2022-09-02T10:57:51.352Z,0.80
2022-09-02T11:01:55.824Z,0.60
2022-09-02T11:06:13.433Z,0.40
2022-09-02T11:10:28.259Z,0.50
2022-09-02T11:19:37.833Z,0.60
2022-09-02T11:23:02.745Z,0.50
2022-09-02T11:27:48.235Z,0.60
2022-09-02T11:32:07.780Z,0.50
2022-09-02T11:35:27.922Z,0.40
2022-09-02T11:38:43.658Z,0.50
2022-09-02T11:42:13.602Z,0.57
2022-09-02T11:45:41.837Z,0.50
2022-09-02T11:49:29.567Z,0.50
2022-09-02T11:53:01.291Z,0.50
2022-09-02T11:56:17.784Z,0.50
2022-09-02T12:00:55.562Z,0.50
2022-09-02T12:07:51.543Z,0.70
2022-09-02T12:12:24.362Z,0.50
2022-09-02T12:17:18.490Z,0.70
2022-09-02T12:26:44.724Z,0.50
2022-09-02T12:31:07.255Z,0.83
2022-09-02T12:41:01.851Z,0.80
2022-09-02T12:44:33.981Z,0.60
2022-09-02T12:47:58.165Z,0.70
2022-09-02T13:01:09.331Z,0.67
2022-09-02T13:10:01.828Z,0.50
2022-09-02T13:14:14.012Z,0.70
2022-09-02T13:17:49.819Z,0.50
2022-09-02T13:21:37.298Z,0.40
2022-09-02T13:25:29.991Z,0.50
2022-09-02T13:29:58.101Z,0.53
2022-09-02T13:33:34.325Z,0.60
2022-09-02T13:37:03.712Z,0.70
2022-09-02T13:41:11.216Z,0.60
2022-09-02T13:44:26.621Z,0.70
2022-09-02T13:47:46.528Z,0.57
2022-09-02T13:51:14.430Z,0.60
2022-09-02T13:54:38.099Z,0.70
2022-09-02T13:57:59.042Z,0.60
2022-09-02T14:02:24.665Z,0.80
2022-09-02T14:06:01.006Z,0.63
2022-09-02T14:10:29.910Z,0.70
2022-09-02T14:14:21.408Z,0.60
2022-09-02T14:18:43.895Z,0.40
2022-09-02T14:23:15.117Z,0.60
2022-09-02T14:26:41.950Z,0.60
2022-09-02T14:30:10.527Z,0.70
2022-09-02T14:33:44.140Z,0.67
2022-09-02T14:37:00.368Z,0.60
2022-09-02T14:40:53.023Z,0.70
2022-09-02T14:44:16.452Z,0.80
2022-09-02T14:47:24.761Z,0.60
2022-09-02T14:50:38.622Z,0.70
2022-09-02T14:53:47.009Z,0.50
2022-09-02T14:56:55.407Z,0.60
2022-09-02T15:01:00.067Z,0.70
2022-09-02T15:08:04.693Z,0.60
2022-09-02T15:11:18.238Z,0.60
2022-09-02T15:14:27.829Z,0.67
2022-09-02T15:17:39.412Z,0.70
2022-09-02T15:20:49.022Z,0.50
2022-09-02T15:23:58.211Z,0.60
2022-09-02T15:27:07.495Z,0.70
2022-09-02T15:30:19.588Z,0.50
2022-09-02T15:33:29.837Z,0.50
2022-09-02T15:36:38.111Z,0.50
2022-09-02T15:39:46.465Z,0.60
2022-09-02T15:42:56.394Z,0.67
2022-09-02T15:46:04.652Z,0.57
2022-09-02T15:49:16.964Z,0.60
2022-09-02T15:52:27.252Z,0.70
2022-09-02T15:55:35.857Z,0.50
2022-09-02T15:58:44.153Z,0.57
2022-09-02T16:01:56.217Z,0.50
2022-09-02T16:05:06.798Z,0.70
2022-09-02T16:08:15.060Z,0.60
2022-09-02T16:11:24.004Z,0.60
2022-09-02T16:14:32.467Z,0.63
2022-09-02T16:17:42.007Z,0.50
2022-09-02T16:20:51.666Z,0.53
2022-09-02T16:24:00.361Z,0.50
2022-09-02T16:27:10.884Z,0.50
2022-09-02T16:30:19.537Z,0.90
2022-09-02T16:33:27.946Z,0.60
2022-09-02T16:36:41.054Z,0.63
2022-09-02T16:39:49.770Z,0.50
2022-09-02T16:43:03.200Z,0.50
2022-09-02T16:46:12.643Z,0.50
2022-09-02T16:49:23.990Z,0.40
2022-09-02T16:52:35.087Z,0.67
2022-09-02T16:55:45.714Z,0.57
2022-09-02T16:58:59.653Z,0.50
2022-09-02T17:02:08.783Z,0.50
2022-09-02T17:05:18.376Z,0.77
2022-09-02T17:08:29.865Z,1.07
2022-09-02T17:11:41.313Z,0.60
2022-09-02T17:14:50.514Z,0.50
2022-09-02T17:17:59.330Z,0.60
2022-09-02T17:21:22.503Z,0.50
2022-09-02T17:24:32.615Z,0.67
2022-09-02T17:27:44.679Z,0.50
2022-09-02T17:30:53.452Z,0.37
2022-09-02T17:34:07.244Z,0.57
2022-09-02T17:37:16.126Z,0.57
2022-09-02T17:40:42.432Z,0.40
2022-09-02T17:43:50.736Z,0.50
2022-09-02T17:47:01.286Z,0.73
2022-09-02T17:50:13.586Z,0.60
2022-09-02T17:53:25.723Z,0.40
2022-09-02T17:57:01.159Z,0.80
2022-09-02T18:00:13.291Z,0.60
2022-09-02T18:03:45.894Z,0.60
2022-09-02T18:07:04.068Z,0.77
2022-09-02T18:10:13.449Z,0.77
2022-09-02T18:13:32.498Z,0.80
2022-09-02T18:17:03.700Z,0.50
2022-09-02T18:20:21.426Z,0.70
2022-09-02T18:23:51.661Z,0.60
2022-09-02T18:27:15.403Z,0.50
2022-09-02T18:30:38.386Z,0.60
2022-09-02T18:34:19.568Z,0.53
2022-09-02T18:37:45.059Z,0.60
2022-09-02T18:41:17.148Z,0.70
2022-09-02T18:44:40.361Z,0.67
2022-09-02T18:47:56.181Z,0.70
2022-09-02T18:51:13.415Z,0.80
2022-09-02T18:54:28.323Z,0.63
2022-09-02T18:57:44.859Z,0.60
2022-09-02T19:01:00.199Z,0.63
2022-09-02T19:04:12.055Z,0.63
2022-09-02T19:07:39.384Z,0.80
2022-09-02T19:10:48.932Z,0.70
2022-09-02T19:14:07.459Z,0.70
2022-09-02T19:17:17.223Z,0.73
2022-09-02T19:20:28.126Z,0.70
2022-09-02T19:23:37.937Z,0.73
2022-09-02T19:26:47.031Z,0.83
2022-09-02T19:30:02.937Z,0.80
2022-09-02T19:33:14.695Z,0.90
2022-09-02T19:36:31.268Z,0.80
2022-09-02T19:39:40.487Z,0.70
2022-09-02T19:42:51.983Z,0.90
2022-09-02T19:46:01.295Z,1.20
2022-09-02T19:49:10.321Z,1.10
2022-09-02T19:52:21.070Z,1.07
2022-09-02T19:55:29.650Z,1.00
2022-09-02T19:58:38.920Z,0.90
2022-09-02T20:01:47.284Z,0.90
2022-09-02T20:04:55.789Z,1.00
2022-09-02T20:08:06.139Z,0.70
2022-09-02T20:11:15.168Z,1.17
2022-09-02T20:14:26.548Z,0.97
2022-09-02T20:17:38.150Z,0.83
2022-09-02T20:20:48.920Z,0.97
2022-09-02T20:24:06.861Z,1.23
2022-09-02T20:27:36.562Z,1.00
2022-09-02T20:30:51.966Z,1.03
2022-09-02T20:34:27.271Z,0.90
2022-09-02T20:37:52.952Z,1.00
2022-09-02T20:41:19.845Z,1.10
2022-09-02T20:44:50.128Z,1.00
2022-09-02T20:48:27.726Z,0.80
2022-09-02T20:51:48.082Z,1.07
2022-09-02T20:55:04.147Z,1.10
2022-09-02T20:58:36.038Z,1.13
2022-09-02T21:01:45.822Z,0.90
2022-09-02T21:05:00.995Z,1.10
2022-09-02T21:08:22.290Z,1.30
2022-09-02T21:11:42.498Z,0.90
2022-09-02T21:15:00.292Z,0.90
2022-09-02T21:18:18.006Z,1.40
2022-09-02T21:21:35.190Z,1.20
2022-09-02T21:24:55.188Z,0.80
2022-09-02T21:28:11.497Z,1.10
2022-09-02T21:31:35.310Z,1.30
2022-09-02T21:34:55.033Z,1.30
2022-09-02T21:38:10.647Z,1.40
2022-09-02T21:41:33.833Z,1.10
2022-09-02T21:45:01.032Z,1.10
2022-09-02T21:48:33.742Z,1.10
2022-09-02T21:51:50.766Z,1.37
2022-09-02T21:55:15.726Z,1.33
2022-09-02T21:58:48.540Z,1.23
2022-09-02T22:02:05.566Z,1.03
2022-09-02T22:05:35.183Z,1.27
2022-09-02T22:08:52.425Z,1.00
2022-09-02T22:12:09.143Z,1.67
2022-09-02T22:15:28.277Z,1.40
2022-09-02T22:18:42.222Z,1.30
2022-09-02T22:21:59.717Z,1.23
2022-09-02T22:25:10.400Z,1.10
2022-09-02T22:28:28.516Z,1.33
2022-09-02T22:31:42.974Z,1.07
2022-09-02T22:35:00.927Z,1.20
2022-09-02T22:38:24.995Z,1.33
2022-09-02T22:41:52.976Z,1.17
2022-09-02T22:45:28.295Z,1.10
2022-09-02T22:49:01.114Z,1.30
2022-09-02T22:52:44.352Z,1.10
2022-09-02T22:56:03.031Z,1.07
2022-09-02T22:59:30.993Z,1.20
2022-09-02T23:02:48.741Z,1.10
2022-09-02T23:06:13.587Z,1.07
2022-09-02T23:09:22.502Z,1.07
2022-09-02T23:12:42.649Z,1.10
2022-09-02T23:16:06.236Z,1.03
2022-09-02T23:19:26.194Z,1.30
2022-09-02T23:22:53.808Z,0.90
2022-09-02T23:26:20.872Z,0.97
2022-09-02T23:29:37.696Z,0.80
2022-09-02T23:33:12.993Z,0.97
2022-09-02T23:36:35.131Z,1.10
2022-09-02T23:39:58.277Z,1.33
2022-09-02T23:43:06.639Z,1.20
2022-09-02T23:46:31.838Z,1.30
2022-09-02T23:49:54.851Z,1.30
2022-09-02T23:53:17.482Z,1.10
2022-09-02T23:56:46.892Z,1.00
